GMT,Max TemperatureF,Mean TemperatureF,Min TemperatureF,Max Dew PointF,MeanDew PointF,Min DewpointF,Max Humidity, Mean Humidity, Min Humidity, Max Sea Level PressureIn, Mean Sea Level PressureIn, Min Sea Level PressureIn, Max VisibilityMiles, Mean VisibilityMiles, Min VisibilityMiles, Max Wind SpeedMPH, Mean Wind SpeedMPH, Max Gust SpeedMPH,PrecipitationIn, CloudCover, Events, WindDirDegrees
2011-10-1,57,54,51,55,53,50,100,96,94,30.21,30.17,30.15,6,5,2,12,6,,0.00,6,Rain,7
2011-10-2,60,58,55,59,57,55,100,98,94,30.18,30.12,30.09,6,3,0,8,5,,0.00,6,Fog-Rain,262
2011-10-3,64,58,51,59,54,46,100,90,72,30.09,29.98,29.86,6,6,2,24,10,29,0.00,5,,221
2011-10-4,60,56,51,57,51,46,100,83,72,30.09,30.04,29.95,6,6,1,17,11,,0.00,6,,220
2011-10-5,64,58,51,59,54,45,100,86,76,29.92,29.82,29.74,6,6,2,29,21,39,0.00,6,Rain,239
2011-10-6,55,50,46,48,44,39,88,78,63,30.15,29.94,29.83,6,6,5,36,20,51,0.00,4,Rain,274
2011-10-7,57,54,50,46,45,45,87,76,63,30.36,30.28,30.15,6,6,6,22,15,36,0.00,4,Rain,289
2011-10-8,59,55,51,59,55,46,100,96,82,30.36,30.26,30.15,6,4,0,18,11,,0.00,7,Fog,247
2011-10-9,60,60,59,59,58,55,100,95,88,30.15,30.04,29.98,6,6,3,28,18,40,0.00,7,Rain,234
2011-10-10,62,60,59,59,58,55,100,90,82,30.01,29.96,29.92,6,5,1,33,25,50,0.00,6,Rain,235
2011-10-11,60,58,57,59,58,55,100,92,82,30.09,30.06,30.01,6,5,2,25,19,,0.00,6,,239
2011-10-12,60,56,53,59,56,50,100,93,82,30.27,30.15,30.04,6,5,1,17,8,,0.00,6,Rain,250
2011-10-13,62,56,51,57,53,50,100,88,72,30.30,30.28,30.27,6,6,2,13,6,,0.00,6,,143
2011-10-14,60,58,57,57,55,54,100,89,77,30.30,30.21,30.12,6,6,5,18,11,,0.00,6,,148
2011-10-15,59,54,50,57,52,46,100,89,77,30.12,30.11,30.09,6,6,2,13,9,,0.00,5,Rain,199
2011-10-16,57,52,48,52,47,45,100,82,63,30.18,30.11,30.04,6,6,6,21,10,,0.00,5,Rain,203
2011-10-17,57,52,46,54,46,39,94,84,72,30.04,29.82,29.62,6,6,1,33,16,46,0.00,5,Rain,228
2011-10-18,53,48,42,45,41,37,87,80,67,30.06,29.91,29.83,6,6,6,21,13,36,0.00,2,Rain,273
2011-10-19,51,46,42,43,40,37,93,80,58,30.39,30.23,30.06,6,6,6,17,8,,0.00,3,Rain,293
2011-10-20,55,50,44,52,45,41,94,87,77,30.39,30.29,30.12,6,6,4,15,8,,0.00,6,Rain,200
2011-10-21,59,56,53,52,50,48,88,81,72,30.12,29.96,29.80,6,6,6,24,14,,0.00,6,,173
2011-10-22,55,52,48,54,50,46,100,90,82,29.80,29.59,29.50,6,6,2,25,15,,0.00,6,Rain,183
2011-10-23,59,54,48,57,51,46,100,93,87,29.47,29.21,28.85,6,6,3,25,12,36,0.00,6,Rain,126
2011-10-24,59,54,48,57,51,48,100,96,88,29.15,29.05,28.82,6,6,2,24,14,,0.00,6,Rain,246
2011-10-25,55,48,42,48,46,41,100,92,71,29.36,29.24,29.15,6,6,1,13,3,,0.00,4,Rain,174
2011-10-26,53,47,41,45,42,39,100,86,67,29.50,29.40,29.36,6,6,6,18,9,,0.00,4,Rain,156
2011-10-27,55,50,46,48,45,41,100,87,67,29.98,29.73,29.50,6,6,6,16,9,,0.00,4,Rain,227
2011-10-28,55,48,42,52,46,41,94,88,82,30.06,30.00,29.89,6,6,5,25,11,,0.00,5,Rain,159
2011-10-29,60,56,53,55,53,50,94,88,72,29.89,29.76,29.68,6,6,5,25,19,,0.00,5,Rain,195
2011-10-30,60,56,53,59,54,50,100,90,88,29.83,29.79,29.65,6,6,5,16,11,,0.00,6,Rain,153
2011-10-31,60,53,46,57,52,45,100,90,82,29.62,29.55,29.47,6,6,1,25,16,,0.00,5,Rain,184